Mário de Almeida Franco Airport

SBUR · 米纳斯吉拉斯州, 巴西

METAR的历史 SBUR · Mário de Almeida Franco Airport

下面你可以看到过去几天的METARs。 选择年份以浏览从2007年开始的旧METAR。

2024年4月14日

时间 代码 天气 温度 能见度 天花板 METAR/SPECI
22:00
V
25 °C 10 km+ - 090° 090° 4 kt METAR SBUR 150100Z 09004KT 9999 FEW049 25/19 Q1018
21:00
V
25 °C 10 km+ - 050° 050° 2 kt METAR SBUR 150000Z 05002KT CAVOK 25/19 Q1017
20:00
V
26 °C 10 km+ - 070° 070° 3 kt METAR SBUR 142300Z 07003KT CAVOK 26/18 Q1016
19:00
V
26 °C 10 km+ - 050° 050° 4 kt METAR SBUR 142200Z 05004KT 9999 FEW045 SCT100 26/19 Q1016
18:00
V
27 °C 10 km+ - 040° 040° 5 kt METAR SBUR 142100Z 04005KT 9999 FEW040 SCT100 27/19 Q1015
17:00
V
27 °C 10 km+ - 040° 040° 5 kt METAR SBUR 142000Z 04005KT CAVOK 27/19 Q1015
16:00
V
27 °C 10 km+ - 010° 010° 6 kt METAR SBUR 141900Z 01006KT CAVOK 27/19 Q1015
15:00
V
28 °C 10 km+ - 360° 360° 8 kt METAR SBUR 141800Z 36008KT 9999 SCT020 28/19 Q1016
14:00
V
28 °C 10 km+ - 360° 360° 8 kt METAR SBUR 141700Z 36008KT 9999 SCT020 28/19 Q1016
13:00
V
28 °C 10 km+ - 010° 010° 8 kt METAR SBUR 141600Z 01008KT 9999 FEW030 28/18 Q1017
12:00
V
27 °C 10 km+ - 020° 020° 9 kt METAR SBUR 141500Z 02009KT 9999 FEW030 27/19 Q1018
11:00
V
27 °C 10 km+ - 020° 020° 10 kt METAR SBUR 141400Z 02010KT CAVOK 27/19 Q1019
10:00
V
25 °C 10 km+ - 030° 030° 8 kt METAR SBUR 141300Z 03008KT CAVOK 25/19 Q1019
09:00
V
23 °C 10 km+ - 040° 040° 8 kt METAR SBUR 141200Z 04008KT CAVOK 23/18 Q1019
08:00
V
22 °C 10 km+ - 050° 050° 9 kt METAR SBUR 141100Z 05009KT CAVOK 22/18 Q1018
07:00
V
22 °C 10 km+ - 050° 050° 7 kt METAR SBUR 141000Z 05007KT CAVOK 22/18 Q1017
06:00
V
22 °C 10 km+ - 050° 050° 7 kt METAR SBUR 140900Z 05007KT CAVOK 22/18 Q1017
05:00
V
22 °C 10 km+ - 060° 060° 8 kt METAR SBUR 140800Z 06008KT CAVOK 22/18 Q1017
04:00
V
23 °C 10 km+ - 060° 060° 8 kt METAR SBUR 140700Z 06008KT CAVOK 23/18 Q1017
03:00
V
23 °C 10 km+ - 060° 060° 7 kt METAR SBUR 140600Z 06007KT CAVOK 23/18 Q1017
02:00
V
23 °C 10 km+ - 060° 060° 6 kt METAR SBUR 140500Z 06006KT CAVOK 23/19 Q1017
01:00
V
23 °C 10 km+ - 050° 050° 5 kt METAR SBUR 140400Z 05005KT CAVOK 23/19 Q1017
00:00
V
23 °C 10 km+ - 050° 050° 7 kt METAR SBUR 140300Z 05007KT CAVOK 23/19 Q1017

2024年4月13日

时间 代码 天气 温度 能见度 天花板 METAR/SPECI
23:00
V
24 °C 10 km+ - 050° 050° 6 kt METAR SBUR 140200Z 05006KT CAVOK 24/19 Q1018
22:00
V
24 °C 10 km+ - 060° 060° 7 kt METAR SBUR 140100Z 06007KT CAVOK 24/18 Q1018
21:00
V
25 °C 10 km+ - 060° 060° 7 kt METAR SBUR 140000Z 06007KT CAVOK 25/19 Q1017
20:00
V
26 °C 10 km+ - 060° 060° 4 kt METAR SBUR 132300Z 06004KT CAVOK 26/19 Q1016
19:00
V
27 °C 10 km+ - 070° 070° 6 kt METAR SBUR 132200Z 07006KT CAVOK 27/19 Q1016
18:00
V
27 °C 10 km+ - 050° 050° 6 kt METAR SBUR 132100Z 05006KT CAVOK 27/19 Q1015
17:00
V
28 °C 10 km+ 10.000 ft 060° 060° 8 kt METAR SBUR 132000Z 06008KT 9999 SCT040 BKN100 28/19 Q1015
16:00
V
28 °C 10 km+ 10.000 ft 080° 080° 7 kt METAR SBUR 131900Z 08007KT 9999 SCT040 BKN100 28/19 Q1016
15:00
V
28 °C 10 km+ 10.000 ft 050° 050° 7 kt METAR SBUR 131800Z 05007KT 9999 SCT040 BKN100 28/20 Q1017
14:00
V
28 °C 10 km+ 4.000 ft 060° 060° 8 kt METAR SBUR 131700Z 06008KT 9999 BKN040 FEW063TCU 28/19 Q1017
13:00
V
30 °C 10 km+ 4.000 ft 040° 040° 8 kt METAR SBUR 131600Z 04008KT 9999 BKN040 30/18 Q1018
12:00
V
29 °C 10 km+ - 020° 020° 9 kt METAR SBUR 131500Z 02009KT 9999 FEW038 29/19 Q1019
11:00
V
28 °C 10 km+ - 050° 050° 10 kt METAR SBUR 131400Z 05010KT CAVOK 28/19 Q1020
10:00
V
27 °C 10 km+ - 050° 050° 10 kt METAR SBUR 131300Z 05010KT CAVOK 27/19 Q1020
09:00
V
25 °C 10 km+ - 070° 070° 10 kt METAR SBUR 131200Z 07010KT CAVOK 25/19 Q1020
08:00
V
23 °C 10 km+ - 060° 060° 8 kt METAR SBUR 131100Z 06008KT CAVOK 23/19 Q1020
07:00
V
22 °C 10 km+ - 070° 070° 6 kt METAR SBUR 131000Z 07006KT CAVOK 22/19 Q1019
06:00
V
23 °C 10 km+ - 070° 070° 6 kt METAR SBUR 130900Z 07006KT CAVOK 23/20 Q1018
05:00
V
23 °C 10 km+ - 080° 080° 4 kt METAR SBUR 130800Z 08004KT CAVOK 23/20 Q1018
04:00
V
22 °C 10 km+ - 060° 060° 4 kt METAR SBUR 130700Z 06004KT CAVOK 22/20 Q1018
03:00
V
22 °C 10 km+ - 140° 140° 2 kt METAR SBUR 130600Z 14002KT CAVOK 22/20 Q1018
02:00
V
22 °C 10 km+ - 120° 120° 3 kt METAR SBUR 130500Z 12003KT CAVOK 22/20 Q1018
01:00
V
23 °C 10 km+ - 070° 070° 5 kt METAR SBUR 130400Z 07005KT CAVOK 23/19 Q1018
00:00
V
23 °C 10 km+ - 070° 070° 5 kt METAR SBUR 130300Z 07005KT CAVOK 23/20 Q1019

2024年4月12日

时间 代码 天气 温度 能见度 天花板 METAR/SPECI
23:00
V
23 °C 10 km+ - 070° 070° 5 kt METAR SBUR 130200Z 07005KT CAVOK 23/20 Q1019
22:00
V
23 °C 10 km+ - 060° 060° 4 kt METAR SBUR 130100Z 06004KT CAVOK 23/21 Q1019
21:00
V
23 °C 10 km+ - 050° 050° 3 kt METAR SBUR 130000Z 05003KT CAVOK 23/21 Q1018
20:00
V
23 °C 10 km+ - 040° 040° 4 kt METAR SBUR 122300Z 04004KT CAVOK 23/21 Q1017
19:00
V
24 °C 10 km+ - 030° 030° 3 kt METAR SBUR 122200Z 03003KT CAVOK 24/22 Q1017
18:00
V
23 °C 10 km+ 10.000 ft 050° 050° 4 kt METAR SBUR 122100Z 05004KT 9999 FEW044 FEW046TCU BKN100 23/22 Q1017
17:00
V
23 °C 10 km+ 10.000 ft 020° 020° 4 kt METAR SBUR 122000Z 02004KT 9999 FEW042 BKN100 23/22 Q1017
16:00
V
23 °C 10 km+ 8.000 ft 350° 350° 7 kt METAR SBUR 121900Z 35007KT 9999 3000NW -RA SCT038 BKN080 23/22 Q1017
15:00
V
23 °C 8 km 8.000 ft 340° 340° 11 kt METAR SBUR 121800Z 34011KT 8000 3000NW -RA SCT034 BKN080 23/22 Q1018 RETS
14:00
I
23 °C 4 km 3.000 ft 110° 110° 8 kt METAR SBUR 121700Z 11008KT 4000 -TSRA BR FEW017 BKN030 FEW032CB 23/22 Q1018 RERA
13:00
M
23 °C 5 km 3.000 ft 170° 170° 11 kt METAR SBUR 121600Z 17011KT 5000 -RA FEW015 BKN030 FEW030TCU 23/23 Q1018 RERA
13:05
L
22 °C 1 km 3.000 ft 140° 140° 12 kt METAR SBUR 121605Z 14012KT 1000 +RA SCT015 BKN030 FEW032TCU 22/22 Q1018
12:00
M
27 °C 9 km 2.500 ft 060° 060° 6 kt METAR SBUR 121500Z 06006KT 9000 -RA BKN025 FEW030TCU 27/22 Q1019
11:00
M
27 °C 10 km+ 2.500 ft 060° 060° 8 kt METAR SBUR 121400Z 06008KT 9999 BKN025 27/21 Q1020
10:00
V
26 °C 10 km+ - 070° 070° 9 kt METAR SBUR 121300Z 07009KT 9999 FEW020 26/21 Q1020
09:00
V
25 °C 10 km+ - 090° 090° 7 kt METAR SBUR 121200Z 09007KT CAVOK 25/20 Q1020
08:00
V
23 °C 10 km+ - 090° 090° 7 kt METAR SBUR 121100Z 09007KT CAVOK 23/20 Q1019
07:00
V
22 °C 10 km+ - 140° 140° 5 kt METAR SBUR 121000Z 14005KT CAVOK 22/20 Q1018
06:00
V
22 °C 10 km+ - 050° 050° 2 kt METAR SBUR 120900Z 05002KT CAVOK 22/20 Q1017
05:00
V
23 °C 10 km+ - 040° 040° 4 kt METAR SBUR 120800Z 04004KT CAVOK 23/20 Q1017
04:00
V
23 °C 10 km+ - 040° 040° 4 kt METAR SBUR 120700Z 04004KT CAVOK 23/20 Q1017
03:00
V
23 °C 10 km+ - 040° 040° 5 kt METAR SBUR 120600Z 04005KT CAVOK 23/20 Q1017
报告变更